Florence, Colorado
Current Conditions -  °F | °C
As of 4:15 AM on Friday 24 Oct 2014 (Local Time) from K1V6 Reporting Station
Clear Clear  
Wind Chill: 55°   Ceiling: Unl
Heat Index: 55°   Visibility: 10mi
Dew Point: 32°   Wind: 10mph
Humidity: 41%   Direction: 220°SW
Pressure: 30.18"   Gusts: NA
Location:  38.39°N, 105.12°W
Report Text: K1V6 241015Z AUTO 22009KT 10SM CLR 13/00 A3018 RMK AO2
Loading
Personal Weather Stations






























Interactive Weather Map
Tropical Storm Tracking
New forecast layout! Learn more

10-Day Weather Forecast

Advertisements
Track Severe Weather on mobile